Time;durP1;ratioP1;P1;durP2;ratioP2;P2;SDS_P1;SDS_P2;PMS_P1;PMS_P2;Temp;Humidity;BMP_temperature;BMP_pressure;BME280_temperature;BME280_humidity;BME280_pressure;Samples;Min_cycle;Max_cycle;Signal;HPM_P1;HPM_P2
2023/09/11 00:00:24;;;;;;;;;;;20.50;99.90;;;;;;5108098;27;20226;-66
2023/09/11 00:02:50;;;;;;;;;;;20.50;99.90;;;;;;5107895;27;19939;-67
2023/09/11 00:05:15;;;;;;;;;;;20.40;99.90;;;;;;5074206;28;20008;-66
2023/09/11 00:07:41;;;;;;;;;;;20.40;99.90;;;;;;5074505;28;20712;-67
2023/09/11 00:10:06;;;;;;;;;;;20.40;99.90;;;;;;5107665;27;20218;-67
2023/09/11 00:12:32;;;;;;;;;;;20.40;99.90;;;;;;5075432;28;19919;-66
2023/09/11 00:14:58;;;;;;;;;;;20.30;99.90;;;;;;5108641;27;19935;-68
2023/09/11 00:17:23;;;;;;;;;;;20.40;99.90;;;;;;5091086;28;20663;-67
2023/09/11 00:19:49;;;;;;;;;;;20.40;99.90;;;;;;5108335;27;19936;-66
2023/09/11 00:22:14;;;;;;;;;;;20.40;99.90;;;;;;5089020;28;19919;-66
2023/09/11 00:24:40;;;;;;;;;;;20.40;99.90;;;;;;5107669;27;19939;-66
2023/09/11 00:27:06;;;;;;;;;;;20.40;99.90;;;;;;5106552;27;19930;-67
2023/09/11 00:29:31;;;;;;;;;;;20.40;99.90;;;;;;5093169;28;20120;-67
2023/09/11 00:31:57;;;;;;;;;;;20.40;99.90;;;;;;5091618;28;20005;-67
2023/09/11 00:34:22;;;;;;;;;;;20.40;99.90;;;;;;5091094;28;20001;-67
2023/09/11 00:36:48;;;;;;;;;;;20.40;99.90;;;;;;5074131;28;20000;-66
2023/09/11 00:39:14;;;;;;;;;;;20.40;99.90;;;;;;5073602;28;20553;-67
2023/09/11 00:41:40;;;;;;;;;;;20.40;99.90;;;;;;5090962;28;20181;-66
2023/09/11 00:44:06;;;;;;;;;;;20.30;99.90;;;;;;5090673;28;20294;-66
2023/09/11 00:46:32;;;;;;;;;;;20.30;99.90;;;;;;5091172;28;20172;-67
2023/09/11 00:48:58;;;;;;;;;;;20.20;99.90;;;;;;5090298;28;20393;-67
2023/09/11 00:51:24;;;;;;;;;;;20.20;99.90;;;;;;5090701;28;20443;-66
2023/09/11 00:53:50;;;;;;;;;;;20.20;99.90;;;;;;5090133;28;20127;-67
2023/09/11 00:56:16;;;;;;;;;;;20.20;99.90;;;;;;5090339;28;20301;-66
2023/09/11 00:58:42;;;;;;;;;;;20.20;99.90;;;;;;5106471;27;19933;-66
2023/09/11 01:01:09;;;;;;;;;;;20.10;99.90;;;;;;5074295;28;19924;-67
2023/09/11 01:03:35;;;;;;;;;;;20.10;99.90;;;;;;5073319;28;19931;-67
2023/09/11 01:06:02;;;;;;;;;;;20.00;99.90;;;;;;5090686;28;19963;-67
2023/09/11 01:08:27;;;;;;;;;;;20.00;99.90;;;;;;5106429;27;20004;-67
2023/09/11 01:10:53;;;;;;;;;;;20.00;99.90;;;;;;5123148;27;20034;-66
2023/09/11 01:13:19;;;;;;;;;;;20.00;99.90;;;;;;5106253;27;20075;-67
2023/09/11 01:15:57;;;;;;;;;;;20.00;99.90;;;;;;5092350;28;19924;-67
2023/09/11 01:18:28;;;;;;;;;;;20.00;99.90;;;;;;5106270;27;19928;-66
2023/09/11 01:21:12;;;;;;;;;;;20.00;99.90;;;;;;5090319;28;19928;-66
2023/09/11 01:23:47;;;;;;;;;;;20.00;99.90;;;;;;5090165;28;19982;-66
2023/09/11 01:26:16;;;;;;;;;;;19.90;99.90;;;;;;5089915;28;20159;-67
2023/09/11 01:29:02;;;;;;;;;;;19.90;99.90;;;;;;5089734;28;20459;-67
2023/09/11 01:31:29;;;;;;;;;;;19.90;99.90;;;;;;5092209;28;20405;-67
2023/09/11 01:33:59;;;;;;;;;;;20.00;99.90;;;;;;5072732;28;19924;-67
2023/09/11 01:36:24;;;;;;;;;;;19.90;99.90;;;;;;5091417;28;20112;-67
2023/09/11 01:38:50;;;;;;;;;;;19.90;99.90;;;;;;5105933;27;19928;-67
2023/09/11 01:41:16;;;;;;;;;;;19.90;99.90;;;;;;5090000;28;19987;-67
2023/09/11 01:43:43;;;;;;;;;;;19.90;99.90;;;;;;5090297;28;19932;-67
2023/09/11 01:46:10;;;;;;;;;;;19.90;99.90;;;;;;5122930;27;20123;-66
2023/09/11 01:48:36;;;;;;;;;;;19.90;99.90;;;;;;5089633;28;19986;-67
2023/09/11 01:51:02;;;;;;;;;;;19.90;99.90;;;;;;5089817;28;20462;-67
2023/09/11 01:53:28;;;;;;;;;;;19.90;99.90;;;;;;5088910;28;19970;-67
2023/09/11 01:55:55;;;;;;;;;;;19.90;99.90;;;;;;5090159;28;19932;-67
2023/09/11 01:58:21;;;;;;;;;;;19.80;99.90;;;;;;5091621;28;19988;-66
2023/09/11 02:00:47;;;;;;;;;;;19.80;99.90;;;;;;5090002;28;19967;-67
2023/09/11 02:03:16;;;;;;;;;;;19.80;99.90;;;;;;5105482;28;20060;-67
2023/09/11 02:05:42;;;;;;;;;;;19.80;99.90;;;;;;5089342;28;19920;-67
2023/09/11 02:08:07;;;;;;;;;;;19.90;99.90;;;;;;5089402;28;19923;-67
2023/09/11 02:10:33;;;;;;;;;;;19.80;99.90;;;;;;5104874;28;19971;-67
2023/09/11 02:12:58;;;;;;;;;;;19.80;99.90;;;;;;5105967;28;19924;-67
2023/09/11 02:15:24;;;;;;;;;;;19.80;99.90;;;;;;5091832;28;19955;-67
2023/09/11 02:17:49;;;;;;;;;;;19.80;99.90;;;;;;5093805;28;19923;-67
2023/09/11 02:20:15;;;;;;;;;;;19.80;99.90;;;;;;5110314;27;20818;-67
2023/09/11 02:22:40;;;;;;;;;;;19.80;99.90;;;;;;5076883;28;19927;-67
2023/09/11 02:25:06;;;;;;;;;;;19.90;99.90;;;;;;5075157;28;20347;-67
2023/09/11 02:27:32;;;;;;;;;;;19.90;99.90;;;;;;5094147;28;19924;-66
2023/09/11 02:29:57;;;;;;;;;;;19.80;99.90;;;;;;5093968;28;19993;-65
2023/09/11 02:32:23;;;;;;;;;;;19.80;99.90;;;;;;5077273;28;19931;-67
2023/09/11 02:34:48;;;;;;;;;;;19.70;99.90;;;;;;5094961;28;19924;-67
2023/09/11 02:37:14;;;;;;;;;;;19.70;99.90;;;;;;5076840;28;19969;-67
2023/09/11 02:39:40;;;;;;;;;;;19.70;99.90;;;;;;5075973;28;19928;-67
2023/09/11 02:42:06;;;;;;;;;;;19.70;99.90;;;;;;5109561;27;19919;-67
2023/09/11 02:44:31;;;;;;;;;;;19.60;99.90;;;;;;5094568;28;20004;-66
2023/09/11 02:46:57;;;;;;;;;;;19.50;99.90;;;;;;5095590;28;19923;-67
2023/09/11 02:49:22;;;;;;;;;;;19.60;99.90;;;;;;5076339;28;19924;-66
2023/09/11 02:51:48;;;;;;;;;;;19.50;99.90;;;;;;5093994;28;20026;-66
2023/09/11 02:54:13;;;;;;;;;;;19.50;99.90;;;;;;5093699;28;19924;-67
2023/09/11 02:56:39;;;;;;;;;;;19.50;99.90;;;;;;5127220;27;20011;-66
2023/09/11 02:59:05;;;;;;;;;;;19.40;99.90;;;;;;5108658;27;20189;-66
2023/09/11 03:01:31;;;;;;;;;;;19.40;99.90;;;;;;5109777;27;19924;-66
2023/09/11 03:03:56;;;;;;;;;;;19.50;99.90;;;;;;5093295;28;19939;-65
2023/09/11 03:06:22;;;;;;;;;;;19.40;99.90;;;;;;5094498;28;19950;-66
2023/09/11 03:08:48;;;;;;;;;;;19.40;99.90;;;;;;5094504;28;19924;-66
2023/09/11 03:11:13;;;;;;;;;;;19.50;99.90;;;;;;5107983;27;20384;-67
2023/09/11 03:13:39;;;;;;;;;;;19.50;99.90;;;;;;5075729;28;20108;-67
2023/09/11 03:16:11;;;;;;;;;;;19.50;99.90;;;;;;5093662;28;20502;-67
2023/09/11 03:18:37;;;;;;;;;;;19.40;99.90;;;;;;5126361;27;20105;-66
2023/09/11 03:21:03;;;;;;;;;;;19.50;99.90;;;;;;5108282;27;20253;-67
2023/09/11 03:23:29;;;;;;;;;;;19.50;99.90;;;;;;5092777;28;19923;-67
2023/09/11 03:25:55;;;;;;;;;;;19.50;99.90;;;;;;5092835;28;20710;-67
2023/09/11 03:28:20;;;;;;;;;;;19.50;99.90;;;;;;5092660;28;19949;-67
2023/09/11 03:30:46;;;;;;;;;;;19.50;99.90;;;;;;5126187;27;19924;-67
2023/09/11 03:33:12;;;;;;;;;;;19.50;99.90;;;;;;5093052;28;19920;-67
2023/09/11 03:35:38;;;;;;;;;;;19.50;99.90;;;;;;5092884;28;19946;-66
2023/09/11 03:38:03;;;;;;;;;;;19.60;99.90;;;;;;5093292;28;20317;-67
2023/09/11 03:40:29;;;;;;;;;;;19.60;99.90;;;;;;5092071;28;19928;-67
2023/09/11 03:42:54;;;;;;;;;;;19.60;99.90;;;;;;5126243;27;20011;-67
2023/09/11 03:45:20;;;;;;;;;;;19.60;99.90;;;;;;5076045;28;20126;-67
2023/09/11 03:47:46;;;;;;;;;;;19.60;99.90;;;;;;5092468;28;19923;-67
2023/09/11 03:50:11;;;;;;;;;;;19.60;99.90;;;;;;5109015;27;19930;-65
2023/09/11 03:52:37;;;;;;;;;;;19.60;99.90;;;;;;5092464;28;19962;-65
2023/09/11 03:55:03;;;;;;;;;;;19.60;99.90;;;;;;5107824;27;20040;-67
2023/09/11 03:57:29;;;;;;;;;;;19.50;99.90;;;;;;5074601;28;19924;-66
2023/09/11 03:59:55;;;;;;;;;;;19.50;99.90;;;;;;5093169;28;19993;-65
2023/09/11 04:02:20;;;;;;;;;;;19.50;99.90;;;;;;5126315;27;20227;-66
2023/09/11 04:04:46;;;;;;;;;;;19.50;99.90;;;;;;5091632;28;19923;-66
2023/09/11 04:07:11;;;;;;;;;;;19.50;99.90;;;;;;5075074;28;19979;-65
2023/09/11 04:09:37;;;;;;;;;;;19.50;99.90;;;;;;5074877;28;19931;-66
2023/09/11 04:12:03;;;;;;;;;;;19.50;99.90;;;;;;5125368;27;19981;-67
2023/09/11 04:14:28;;;;;;;;;;;19.40;99.90;;;;;;5125322;27;20392;-67
2023/09/11 04:16:54;;;;;;;;;;;19.40;99.90;;;;;;5108324;27;20052;-66
2023/09/11 04:19:20;;;;;;;;;;;19.30;99.90;;;;;;5108360;27;20079;-66
2023/09/11 04:21:45;;;;;;;;;;;19.30;99.90;;;;;;5074614;28;19949;-66
2023/09/11 04:24:14;;;;;;;;;;;19.30;99.90;;;;;;5124927;27;19938;-67
2023/09/11 04:26:40;;;;;;;;;;;19.30;99.90;;;;;;5090905;28;20420;-66
2023/09/11 04:29:06;;;;;;;;;;;19.40;99.90;;;;;;5108429;27;19930;-67
2023/09/11 04:31:31;;;;;;;;;;;19.30;99.90;;;;;;5092051;28;19981;-66
2023/09/11 04:33:57;;;;;;;;;;;19.30;99.90;;;;;;5091747;28;20431;-66
2023/09/11 04:36:22;;;;;;;;;;;19.40;99.90;;;;;;5107223;27;20226;-66
2023/09/11 04:38:48;;;;;;;;;;;19.40;99.90;;;;;;5090414;28;19927;-66
2023/09/11 04:41:14;;;;;;;;;;;19.30;99.90;;;;;;5074787;28;19927;-65
2023/09/11 04:43:39;;;;;;;;;;;19.30;99.90;;;;;;5092748;28;19935;-66
2023/09/11 04:46:05;;;;;;;;;;;19.20;99.90;;;;;;5075635;28;20110;-66
2023/09/11 04:48:30;;;;;;;;;;;19.20;99.90;;;;;;5093568;28;20286;-67
2023/09/11 04:50:56;;;;;;;;;;;19.20;99.90;;;;;;5105770;27;19986;-66
2023/09/11 04:53:22;;;;;;;;;;;19.20;99.90;;;;;;5057081;28;20335;-66
2023/09/11 04:55:47;;;;;;;;;;;19.20;99.90;;;;;;5090900;28;19930;-67
2023/09/11 04:58:13;;;;;;;;;;;19.20;99.90;;;;;;5091381;28;20072;-67
2023/09/11 05:00:40;;;;;;;;;;;19.20;99.90;;;;;;5108656;27;20285;-65
2023/09/11 05:03:05;;;;;;;;;;;19.20;99.90;;;;;;5124206;27;20344;-67
2023/09/11 05:05:31;;;;;;;;;;;19.20;99.90;;;;;;5075416;28;19923;-67
2023/09/11 05:07:56;;;;;;;;;;;19.20;99.90;;;;;;5107634;27;19946;-66
2023/09/11 05:10:22;;;;;;;;;;;19.20;99.90;;;;;;5107492;27;19924;-67
2023/09/11 05:12:48;;;;;;;;;;;19.10;99.90;;;;;;5091948;28;19923;-68
2023/09/11 05:15:14;;;;;;;;;;;19.20;99.90;;;;;;5075113;28;20022;-67
2023/09/11 05:17:40;;;;;;;;;;;19.20;99.90;;;;;;5092612;28;19927;-66
2023/09/11 05:20:06;;;;;;;;;;;19.20;99.90;;;;;;5093851;28;19935;-66
2023/09/11 05:22:32;;;;;;;;;;;19.20;99.90;;;;;;5092055;28;19924;-67
2023/09/11 05:24:59;;;;;;;;;;;19.20;99.90;;;;;;5090078;28;20161;-67
2023/09/11 05:27:25;;;;;;;;;;;19.20;99.90;;;;;;5089644;28;20154;-67
2023/09/11 05:29:50;;;;;;;;;;;19.30;99.90;;;;;;5090216;28;19924;-65
2023/09/11 05:32:18;;;;;;;;;;;19.30;99.90;;;;;;5091762;28;19924;-66
2023/09/11 05:34:43;;;;;;;;;;;19.40;99.90;;;;;;5090881;28;19962;-66
2023/09/11 05:37:09;;;;;;;;;;;19.40;99.90;;;;;;5074141;28;19931;-67
2023/09/11 05:39:34;;;;;;;;;;;19.50;99.90;;;;;;5092452;28;19970;-67
2023/09/11 05:42:00;;;;;;;;;;;19.50;99.90;;;;;;5108030;27;19962;-66
2023/09/11 05:44:25;;;;;;;;;;;19.60;99.90;;;;;;5075287;28;19928;-66
2023/09/11 05:46:51;;;;;;;;;;;19.60;99.90;;;;;;5092316;28;19923;-66
2023/09/11 05:49:22;;;;;;;;;;;19.60;99.90;;;;;;5091511;28;19962;-67
2023/09/11 05:51:48;;;;;;;;;;;19.70;99.90;;;;;;5088861;28;19920;-67
2023/09/11 05:54:14;;;;;;;;;;;19.80;99.90;;;;;;5088837;28;20014;-66
2023/09/11 05:56:39;;;;;;;;;;;19.90;99.90;;;;;;5089369;28;20345;-66
2023/09/11 05:59:05;;;;;;;;;;;19.90;99.90;;;;;;5089607;28;20034;-67
2023/09/11 06:01:30;;;;;;;;;;;20.00;99.90;;;;;;5089612;28;20721;-67
2023/09/11 06:03:56;;;;;;;;;;;20.00;99.90;;;;;;5089316;28;19939;-66
2023/09/11 06:06:22;;;;;;;;;;;20.10;99.90;;;;;;5122470;27;19931;-66
2023/09/11 06:08:47;;;;;;;;;;;20.10;99.90;;;;;;5089024;28;19993;-67
2023/09/11 06:11:13;;;;;;;;;;;20.20;99.90;;;;;;5074463;28;20243;-67
2023/09/11 06:13:40;;;;;;;;;;;20.20;99.90;;;;;;5107400;28;20139;-66
2023/09/11 06:16:06;;;;;;;;;;;20.30;99.90;;;;;;5091309;28;20415;-66
2023/09/11 06:18:31;;;;;;;;;;;20.40;99.90;;;;;;5091056;28;19927;-66
2023/09/11 06:20:57;;;;;;;;;;;20.40;99.90;;;;;;5073795;28;20366;-66
2023/09/11 06:23:23;;;;;;;;;;;20.60;99.90;;;;;;5090086;28;20067;-67
2023/09/11 06:25:48;;;;;;;;;;;20.90;99.90;;;;;;5073671;28;19924;-66
2023/09/11 06:28:14;;;;;;;;;;;21.20;99.90;;;;;;5072515;28;19924;-66
2023/09/11 06:30:39;;;;;;;;;;;21.40;99.90;;;;;;5091613;28;20425;-67
2023/09/11 06:33:05;;;;;;;;;;;21.60;99.90;;;;;;5089978;28;19923;-67
2023/09/11 06:35:30;;;;;;;;;;;21.70;99.90;;;;;;5107533;27;20337;-65
2023/09/11 06:37:56;;;;;;;;;;;21.90;99.90;;;;;;5091779;28;19956;-66
2023/09/11 06:40:22;;;;;;;;;;;22.00;99.90;;;;;;5090484;28;20292;-67
2023/09/11 06:42:47;;;;;;;;;;;22.10;99.90;;;;;;5073851;28;20525;-66
2023/09/11 06:45:13;;;;;;;;;;;22.10;99.90;;;;;;5106514;28;19930;-66
2023/09/11 06:47:39;;;;;;;;;;;22.10;99.90;;;;;;5090630;28;19924;-65
2023/09/11 06:50:04;;;;;;;;;;;22.20;99.90;;;;;;5090853;28;19924;-66
2023/09/11 06:52:32;;;;;;;;;;;22.10;99.90;;;;;;5090190;28;19935;-66
2023/09/11 06:54:58;;;;;;;;;;;22.00;99.90;;;;;;5124215;27;19927;-66
2023/09/11 06:57:23;;;;;;;;;;;22.00;99.90;;;;;;5090175;28;20200;-65
2023/09/11 06:59:49;;;;;;;;;;;22.10;99.90;;;;;;5090569;28;19971;-67
2023/09/11 07:02:14;;;;;;;;;;;22.40;99.90;;;;;;5074836;28;20329;-68
2023/09/11 07:04:40;;;;;;;;;;;22.70;99.90;;;;;;5109443;27;19988;-66
2023/09/11 07:07:06;;;;;;;;;;;23.00;99.90;;;;;;5109271;27;19927;-69
2023/09/11 07:09:31;;;;;;;;;;;23.00;99.90;;;;;;5108904;27;20420;-67
2023/09/11 07:11:57;;;;;;;;;;;23.10;99.90;;;;;;5093838;28;20714;-67
2023/09/11 07:14:23;;;;;;;;;;;23.00;99.90;;;;;;5094400;27;19959;-66
2023/09/11 07:16:49;;;;;;;;;;;23.10;99.90;;;;;;5109080;27;20719;-66
2023/09/11 07:19:14;;;;;;;;;;;23.20;99.90;;;;;;5077793;28;20010;-66
2023/09/11 07:21:41;;;;;;;;;;;23.50;99.90;;;;;;5125236;27;20289;-67
2023/09/11 07:24:07;;;;;;;;;;;23.70;99.90;;;;;;5094044;27;19971;-67
2023/09/11 07:26:32;;;;;;;;;;;23.90;99.90;;;;;;5077644;28;20042;-66
2023/09/11 07:29:01;;;;;;;;;;;24.10;99.90;;;;;;5076285;28;19934;-66
2023/09/11 07:31:27;;;;;;;;;;;24.40;99.90;;;;;;5095801;27;19930;-66
2023/09/11 07:33:53;;;;;;;;;;;24.60;99.90;;;;;;5094786;27;20395;-66
2023/09/11 07:36:19;;;;;;;;;;;24.70;99.90;;;;;;5077758;27;19924;-66
2023/09/11 07:38:45;;;;;;;;;;;24.90;99.90;;;;;;5093029;27;20367;-66
2023/09/11 07:41:13;;;;;;;;;;;24.90;99.90;;;;;;5094231;27;19923;-66
2023/09/11 07:43:38;;;;;;;;;;;24.90;99.90;;;;;;5108241;27;20130;-66
2023/09/11 07:46:04;;;;;;;;;;;25.10;99.90;;;;;;5126447;27;19923;-66
2023/09/11 07:48:29;;;;;;;;;;;25.40;99.90;;;;;;5095155;27;19924;-67
2023/09/11 07:50:58;;;;;;;;;;;25.60;99.90;;;;;;5093131;28;20209;-66
2023/09/11 07:53:23;;;;;;;;;;;25.70;99.90;;;;;;5095120;27;19927;-66
2023/09/11 07:55:49;;;;;;;;;;;25.70;99.90;;;;;;5092932;28;20416;-66
2023/09/11 07:58:16;;;;;;;;;;;25.80;99.90;;;;;;5075899;28;20562;-66
2023/09/11 08:00:41;;;;;;;;;;;25.80;99.90;;;;;;5077368;28;19931;-66
2023/09/11 08:03:07;;;;;;;;;;;26.10;96.90;;;;;;5079333;28;20499;-67
2023/09/11 08:05:56;;;;;;;;;;;26.40;94.00;;;;;;5076657;28;20374;-65
2023/09/11 08:08:21;;;;;;;;;;;26.60;93.00;;;;;;5095596;28;19931;-66
2023/09/11 08:10:47;;;;;;;;;;;26.90;65.70;;;;;;5108554;27;19928;-66
2023/09/11 08:13:12;;;;;;;;;;;27.00;52.60;;;;;;5095860;27;19928;-65
2023/09/11 08:15:39;;;;;;;;;;;26.90;52.80;;;;;;5096979;27;20464;-65
2023/09/11 08:18:04;;;;;;;;;;;27.00;37.50;;;;;;5127693;27;20072;-66
2023/09/11 08:20:30;;;;;;;;;;;27.20;35.50;;;;;;5077863;28;19928;-64
2023/09/11 08:22:58;;;;;;;;;;;27.40;26.60;;;;;;5093592;27;19924;-65
2023/09/11 08:25:23;;;;;;;;;;;27.40;28.50;;;;;;5094771;27;20607;-65
2023/09/11 08:27:49;;;;;;;;;;;27.60;33.20;;;;;;5111026;27;19923;-64
2023/09/11 08:30:15;;;;;;;;;;;27.80;28.10;;;;;;5095174;28;19927;-64
2023/09/11 08:32:40;;;;;;;;;;;28.00;22.40;;;;;;5093410;28;20664;-65
2023/09/11 08:35:06;;;;;;;;;;;28.10;15.60;;;;;;5106745;27;19923;-65
2023/09/11 08:37:31;;;;;;;;;;;28.00;13.40;;;;;;5095545;27;19996;-65
2023/09/11 08:39:57;;;;;;;;;;;28.10;13.80;;;;;;5126758;27;19924;-65
2023/09/11 08:42:23;;;;;;;;;;;28.20;14.90;;;;;;5127412;27;19927;-64
2023/09/11 08:44:49;;;;;;;;;;;28.40;11.10;;;;;;5079268;28;19924;-66
2023/09/11 08:47:15;;;;;;;;;;;28.80;1.20;;;;;;5096922;27;19926;-66
2023/09/11 08:49:49;;;;;;;;;;;28.90;1.00;;;;;;5097358;27;19924;-66
2023/09/11 08:52:15;;;;;;;;;;;29.00;1.00;;;;;;5109198;27;19957;-65
2023/09/11 08:54:42;;;;;;;;;;;29.20;1.00;;;;;;5092645;28;19923;-65
2023/09/11 08:57:10;;;;;;;;;;;29.40;1.00;;;;;;5093858;28;19930;-64
2023/09/11 08:59:37;;;;;;;;;;;29.40;1.00;;;;;;5089885;28;19928;-63
2023/09/11 09:02:03;;;;;;;;;;;29.70;1.00;;;;;;5123353;27;19935;-65
2023/09/11 09:04:30;;;;;;;;;;;29.60;1.00;;;;;;5090046;28;19930;-65
2023/09/11 09:06:55;;;;;;;;;;;29.60;1.00;;;;;;5124027;27;20014;-65
2023/09/11 09:09:21;;;;;;;;;;;30.20;1.00;;;;;;5091996;28;19979;-65
2023/09/11 09:11:48;;;;;;;;;;;30.60;1.00;;;;;;5089890;28;20182;-65
2023/09/11 09:14:18;;;;;;;;;;;30.70;1.00;;;;;;5091089;28;20052;-66
2023/09/11 09:16:47;;;;;;;;;;;30.70;1.00;;;;;;5091015;27;19940;-66
2023/09/11 09:19:13;;;;;;;;;;;30.80;1.00;;;;;;5104664;27;20429;-65
2023/09/11 09:22:05;;;;;;;;;;;30.80;1.00;;;;;;5090075;28;19927;-64
2023/09/11 09:24:34;;;;;;;;;;;30.90;1.00;;;;;;5085149;28;19924;-65
2023/09/11 09:27:01;;;;;;;;;;;31.20;1.00;;;;;;5089535;28;20322;-65
2023/09/11 09:29:27;;;;;;;;;;;31.30;1.00;;;;;;5089987;28;19924;-65
2023/09/11 09:31:52;;;;;;;;;;;31.20;1.00;;;;;;5123193;27;19930;-65
2023/09/11 09:34:18;;;;;;;;;;;31.50;1.00;;;;;;5073432;28;19923;-65
2023/09/11 09:36:53;;;;;;;;;;;31.70;1.00;;;;;;5090989;28;19931;-65
2023/09/11 09:39:19;;;;;;;;;;;31.70;1.00;;;;;;5090602;28;19927;-66
2023/09/11 09:41:54;;;;;;;;;;;31.70;1.00;;;;;;5091196;28;19931;-64
2023/09/11 09:44:36;;;;;;;;;;;31.70;1.00;;;;;;5090300;28;19974;-64
2023/09/11 09:47:05;;;;;;;;;;;31.70;1.00;;;;;;5105681;27;19973;-64
2023/09/11 09:49:32;;;;;;;;;;;32.10;1.00;;;;;;5088885;28;20327;-64
2023/09/11 09:51:58;;;;;;;;;;;32.00;1.00;;;;;;5122283;27;19959;-66
2023/09/11 09:54:39;;;;;;;;;;;32.20;1.00;;;;;;5123996;27;20030;-64
2023/09/11 09:57:08;;;;;;;;;;;32.20;1.00;;;;;;5088933;28;20257;-65
2023/09/11 09:59:34;;;;;;;;;;;32.10;1.00;;;;;;5090744;28;20133;-65
2023/09/11 10:01:59;;;;;;;;;;;32.30;1.00;;;;;;5089472;28;20199;-67
2023/09/11 10:04:25;;;;;;;;;;;32.20;1.00;;;;;;5073136;28;19931;-65
2023/09/11 10:06:52;;;;;;;;;;;31.90;1.00;;;;;;5073119;28;20189;-65
2023/09/11 10:09:19;;;;;;;;;;;31.90;1.00;;;;;;5123006;27;19978;-65
2023/09/11 10:11:44;;;;;;;;;;;31.90;1.00;;;;;;5090605;28;19924;-65
2023/09/11 10:14:10;;;;;;;;;;;31.70;1.00;;;;;;5072663;28;20128;-65
2023/09/11 10:16:36;;;;;;;;;;;31.80;1.00;;;;;;5071935;28;20310;-65
2023/09/11 10:19:02;;;;;;;;;;;31.80;1.00;;;;;;5089544;28;20519;-65
2023/09/11 10:21:29;;;;;;;;;;;31.80;1.00;;;;;;5123758;27;19984;-65
2023/09/11 10:23:54;;;;;;;;;;;31.90;1.00;;;;;;5105596;27;19934;-65
2023/09/11 10:26:25;;;;;;;;;;;31.90;1.00;;;;;;5072182;28;19947;-65
2023/09/11 10:29:02;;;;;;;;;;;32.20;1.00;;;;;;5103451;27;19919;-65
2023/09/11 10:31:54;;;;;;;;;;;32.60;1.00;;;;;;5091454;28;19931;-64
2023/09/11 10:34:20;;;;;;;;;;;32.80;1.00;;;;;;5044504;28;19935;-64
2023/09/11 10:36:49;;;;;;;;;;;32.70;1.00;;;;;;5089369;28;20159;-65
2023/09/11 10:39:16;;;;;;;;;;;32.50;1.00;;;;;;5107682;27;20565;-64
2023/09/11 10:41:42;;;;;;;;;;;32.50;1.00;;;;;;5094703;27;19928;-66
2023/09/11 10:44:07;;;;;;;;;;;32.90;1.00;;;;;;5093607;27;19924;-65
2023/09/11 10:46:34;;;;;;;;;;;32.80;1.00;;;;;;5093245;27;20421;-65
2023/09/11 10:49:00;;;;;;;;;;;33.10;1.00;;;;;;5094169;27;19927;-65
2023/09/11 10:51:28;;;;;;;;;;;33.10;1.00;;;;;;5093852;27;19924;-66
2023/09/11 10:53:54;;;;;;;;;;;33.00;1.00;;;;;;5092230;27;20303;-64
2023/09/11 10:56:19;;;;;;;;;;;33.00;1.00;;;;;;5106684;27;20595;-65
2023/09/11 10:58:45;;;;;;;;;;;32.90;1.00;;;;;;5106297;27;19980;-65
2023/09/11 11:01:16;;;;;;;;;;;32.70;1.00;;;;;;5076421;28;20529;-64
2023/09/11 11:03:41;;;;;;;;;;;33.00;1.00;;;;;;5110338;27;20516;-64
2023/09/11 11:06:09;;;;;;;;;;;33.10;1.00;;;;;;5096298;27;19923;-65
2023/09/11 11:08:38;;;;;;;;;;;32.90;1.00;;;;;;5126288;27;19928;-65
2023/09/11 11:11:03;;;;;;;;;;;33.20;1.00;;;;;;5096550;27;19928;-64
2023/09/11 11:13:30;;;;;;;;;;;32.90;1.00;;;;;;5094014;27;19954;-64
2023/09/11 11:16:22;;;;;;;;;;;33.00;1.00;;;;;;5094791;27;19964;-65
2023/09/11 11:18:51;;;;;;;;;;;32.60;1.00;;;;;;5073328;28;19931;-65
2023/09/11 11:21:16;;;;;;;;;;;33.00;1.00;;;;;;5076573;27;19927;-65
2023/09/11 11:23:53;;;;;;;;;;;33.20;1.00;;;;;;5093438;28;20215;-66
2023/09/11 11:26:18;;;;;;;;;;;33.40;1.00;;;;;;5094500;27;20835;-65
2023/09/11 11:28:45;;;;;;;;;;;33.50;1.00;;;;;;5124558;27;19924;-64
2023/09/11 11:31:16;;;;;;;;;;;33.60;1.00;;;;;;5077984;27;19954;-64
2023/09/11 11:33:44;;;;;;;;;;;33.70;1.00;;;;;;5108091;27;19930;-65
2023/09/11 11:36:11;;;;;;;;;;;33.60;1.00;;;;;;5093596;27;19934;-65
2023/09/11 11:38:38;;;;;;;;;;;33.50;1.00;;;;;;5126370;27;20851;-65
2023/09/11 11:41:03;;;;;;;;;;;33.60;1.00;;;;;;5096157;27;19958;-66
2023/09/11 11:43:32;;;;;;;;;;;33.70;1.00;;;;;;5108899;27;19928;-65
2023/09/11 11:45:58;;;;;;;;;;;33.80;1.00;;;;;;5109567;27;20001;-65
2023/09/11 11:48:26;;;;;;;;;;;34.00;1.00;;;;;;5096588;27;20015;-64
2023/09/11 11:50:51;;;;;;;;;;;34.30;1.00;;;;;;5095746;27;19977;-65
2023/09/11 11:53:18;;;;;;;;;;;34.60;1.00;;;;;;5095428;27;19923;-66
2023/09/11 11:55:44;;;;;;;;;;;34.80;1.00;;;;;;5109966;27;19920;-66
2023/09/11 11:58:10;;;;;;;;;;;34.90;1.00;;;;;;5107449;27;19930;-66
2023/09/11 12:00:36;;;;;;;;;;;35.00;1.00;;;;;;5094838;27;20556;-65
2023/09/11 12:03:06;;;;;;;;;;;35.10;1.00;;;;;;5095823;27;19924;-65
2023/09/11 12:05:32;;;;;;;;;;;34.80;1.00;;;;;;5109554;27;19923;-65
2023/09/11 12:07:58;;;;;;;;;;;34.50;1.00;;;;;;5095711;27;19927;-65
2023/09/11 12:10:24;;;;;;;;;;;34.40;1.00;;;;;;5096531;27;20576;-65
2023/09/11 12:12:50;;;;;;;;;;;34.30;1.00;;;;;;5109503;27;19988;-64
2023/09/11 12:15:16;;;;;;;;;;;34.00;1.00;;;;;;5075235;28;19924;-65
2023/09/11 12:17:46;;;;;;;;;;;33.50;1.00;;;;;;5077022;27;20547;-65
2023/09/11 12:20:11;;;;;;;;;;;33.20;1.00;;;;;;5093828;27;20072;-66
2023/09/11 12:22:38;;;;;;;;;;;33.50;1.00;;;;;;5107711;27;20176;-64
2023/09/11 12:25:06;;;;;;;;;;;33.70;1.00;;;;;;5092347;28;19935;-65
2023/09/11 12:27:33;;;;;;;;;;;33.20;1.00;;;;;;5091507;27;20327;-65
2023/09/11 12:29:59;;;;;;;;;;;33.10;1.00;;;;;;5092020;27;19930;-65
2023/09/11 12:32:25;;;;;;;;;;;33.10;1.00;;;;;;5104953;27;19924;-66
2023/09/11 12:34:50;;;;;;;;;;;33.40;1.00;;;;;;5092238;27;20222;-65
2023/09/11 12:37:16;;;;;;;;;;;33.60;1.00;;;;;;5104178;27;20301;-66
2023/09/11 12:39:42;;;;;;;;;;;33.50;1.00;;;;;;5090833;27;19928;-65
2023/09/11 12:42:07;;;;;;;;;;;33.50;1.00;;;;;;5091442;27;19969;-65
2023/09/11 12:44:33;;;;;;;;;;;33.60;1.00;;;;;;5091686;27;20369;-65
2023/09/11 12:47:00;;;;;;;;;;;33.60;1.00;;;;;;5104942;27;20179;-65
2023/09/11 12:49:26;;;;;;;;;;;33.80;1.00;;;;;;5090421;27;20474;-65
2023/09/11 12:51:52;;;;;;;;;;;33.40;1.00;;;;;;5092834;27;19923;-65
2023/09/11 12:54:17;;;;;;;;;;;33.60;1.00;;;;;;5092088;27;19923;-65
2023/09/11 12:56:43;;;;;;;;;;;33.40;1.00;;;;;;5089956;27;20370;-65
2023/09/11 12:59:10;;;;;;;;;;;33.20;1.00;;;;;;5091132;28;19928;-65
2023/09/11 13:01:35;;;;;;;;;;;33.60;1.00;;;;;;5089806;28;19935;-66
2023/09/11 13:04:01;;;;;;;;;;;33.80;1.00;;;;;;5056213;28;19923;-65
2023/09/11 13:06:27;;;;;;;;;;;33.80;1.00;;;;;;5090447;27;19997;-65
2023/09/11 13:08:56;;;;;;;;;;;33.90;1.00;;;;;;5104452;27;19932;-65
2023/09/11 13:11:22;;;;;;;;;;;34.10;1.00;;;;;;5123754;27;20019;-65
2023/09/11 13:13:48;;;;;;;;;;;33.40;1.00;;;;;;5058443;28;19931;-65
2023/09/11 13:16:13;;;;;;;;;;;33.90;1.00;;;;;;5090721;28;20284;-65
2023/09/11 13:18:39;;;;;;;;;;;33.50;1.00;;;;;;5106102;27;20429;-65
2023/09/11 13:21:05;;;;;;;;;;;33.50;1.00;;;;;;5090639;28;19923;-65
2023/09/11 13:23:30;;;;;;;;;;;33.50;1.00;;;;;;5089877;28;20227;-65
2023/09/11 13:25:56;;;;;;;;;;;33.50;1.00;;;;;;5073086;28;19919;-66
2023/09/11 13:28:22;;;;;;;;;;;33.30;1.00;;;;;;5107134;27;19927;-65
2023/09/11 13:30:47;;;;;;;;;;;33.70;1.00;;;;;;5122538;27;19924;-65
2023/09/11 13:33:13;;;;;;;;;;;33.10;1.00;;;;;;5105489;27;20230;-65
2023/09/11 13:35:39;;;;;;;;;;;33.80;1.00;;;;;;5091883;28;20091;-64
2023/09/11 13:38:05;;;;;;;;;;;33.80;1.00;;;;;;5089572;28;20279;-65
2023/09/11 13:40:31;;;;;;;;;;;33.60;1.00;;;;;;5090774;27;20014;-64
2023/09/11 13:42:56;;;;;;;;;;;33.30;1.00;;;;;;5105834;27;19992;-65
2023/09/11 13:45:22;;;;;;;;;;;33.30;1.00;;;;;;5055604;28;20262;-65
2023/09/11 13:47:49;;;;;;;;;;;33.20;1.00;;;;;;5089770;28;19930;-64
2023/09/11 13:50:14;;;;;;;;;;;32.30;1.00;;;;;;5089719;28;19933;-64
2023/09/11 13:52:40;;;;;;;;;;;32.80;1.00;;;;;;5090275;28;20166;-66
2023/09/11 13:55:06;;;;;;;;;;;32.20;1.00;;;;;;5091329;28;19924;-65
2023/09/11 13:57:31;;;;;;;;;;;32.00;1.00;;;;;;5073318;28;20425;-65
2023/09/11 13:59:57;;;;;;;;;;;32.00;1.00;;;;;;5091502;28;19978;-66
2023/09/11 14:02:22;;;;;;;;;;;32.40;1.00;;;;;;5090945;28;20026;-65
2023/09/11 14:04:48;;;;;;;;;;;32.90;1.00;;;;;;5089942;28;19950;-65
2023/09/11 14:07:15;;;;;;;;;;;33.00;1.00;;;;;;5082467;28;20400;-66
2023/09/11 14:09:41;;;;;;;;;;;32.60;1.00;;;;;;5089785;28;20132;-65
2023/09/11 14:12:07;;;;;;;;;;;32.70;1.00;;;;;;5095030;27;19928;-66
2023/09/11 14:14:32;;;;;;;;;;;32.90;1.00;;;;;;5096432;27;19931;-68
2023/09/11 14:16:58;;;;;;;;;;;32.60;1.00;;;;;;5077386;28;19927;-65